createdAt,value
2022-10-11T00:01:09.646Z,9.85
2022-10-11T00:03:38.233Z,10.00
2022-10-11T00:06:08.358Z,9.95
2022-10-11T00:08:37.115Z,9.68
2022-10-11T00:11:08.770Z,9.91
2022-10-11T00:13:37.918Z,9.93
2022-10-11T00:16:12.788Z,9.88
2022-10-11T00:18:42.160Z,9.89
2022-10-11T00:21:14.782Z,9.82
2022-10-11T00:23:44.868Z,9.71
2022-10-11T00:26:13.644Z,9.79
2022-10-11T00:28:43.167Z,9.65
2022-10-11T00:31:14.465Z,9.69
2022-10-11T00:33:43.470Z,9.66
2022-10-11T00:36:15.387Z,9.77
2022-10-11T00:38:46.165Z,9.90
2022-10-11T00:41:15.230Z,9.83
2022-10-11T00:43:44.291Z,9.71
2022-10-11T00:46:19.429Z,9.93
2022-10-11T00:48:51.930Z,9.85
2022-10-11T00:51:39.876Z,9.91
2022-10-11T00:54:12.492Z,9.82
2022-10-11T00:56:44.059Z,9.75
2022-10-11T00:59:16.727Z,9.78
2022-10-11T01:01:45.929Z,9.75
2022-10-11T01:04:14.714Z,9.87
2022-10-11T01:06:43.997Z,9.88
2022-10-11T01:09:13.778Z,9.85
2022-10-11T01:11:44.860Z,9.84
2022-10-11T01:14:31.874Z,10.01
2022-10-11T01:17:30.136Z,10.09
2022-10-11T01:20:25.274Z,10.20
2022-10-11T01:23:19.064Z,10.28
2022-10-11T01:25:55.345Z,10.38
2022-10-11T01:28:39.674Z,10.68
2022-10-11T01:31:22.379Z,10.85
2022-10-11T01:33:57.327Z,10.99
2022-10-11T01:36:32.071Z,11.17
2022-10-11T01:39:20.937Z,11.19
2022-10-11T01:41:54.835Z,11.29
2022-10-11T01:44:27.582Z,11.29
2022-10-11T01:46:56.573Z,11.43
2022-10-11T01:49:25.101Z,11.58
2022-10-11T01:51:56.895Z,11.87
2022-10-11T01:54:50.207Z,12.08
2022-10-11T01:57:42.475Z,12.25
2022-10-11T02:00:29.554Z,12.38
2022-10-11T02:03:25.791Z,12.39
2022-10-11T02:06:31.680Z,12.42
2022-10-11T02:09:09.342Z,12.32
2022-10-11T02:11:39.986Z,12.08
2022-10-11T02:14:26.058Z,12.06
2022-10-11T02:17:15.729Z,12.42
2022-10-11T02:19:49.542Z,12.80
2022-10-11T02:22:33.679Z,12.92
2022-10-11T02:25:07.563Z,13.32
2022-10-11T02:27:40.726Z,13.71
2022-10-11T02:30:11.508Z,14.09
2022-10-11T02:32:44.921Z,14.28
2022-10-11T02:35:14.650Z,14.48
2022-10-11T02:37:45.927Z,14.67
2022-10-11T02:40:38.500Z,14.81
2022-10-11T02:43:18.520Z,15.00
2022-10-11T02:45:55.326Z,15.24
2022-10-11T02:48:26.109Z,15.32
2022-10-11T02:50:56.978Z,15.60
2022-10-11T02:53:27.679Z,15.86
2022-10-11T02:55:57.274Z,15.97
2022-10-11T02:58:26.686Z,16.07
2022-10-11T03:00:55.516Z,16.21
2022-10-11T03:03:24.182Z,16.19
2022-10-11T03:06:00.103Z,16.47
2022-10-11T03:08:29.664Z,15.66
2022-10-11T03:10:58.726Z,15.82
2022-10-11T03:13:28.526Z,16.10
2022-10-11T03:16:07.434Z,16.25
2022-10-11T03:18:36.578Z,16.30
2022-10-11T03:21:05.536Z,16.74
2022-10-11T03:23:34.371Z,16.73
2022-10-11T03:26:03.293Z,16.97
2022-10-11T03:28:32.978Z,17.25
2022-10-11T03:31:01.559Z,17.63
2022-10-11T03:33:30.290Z,17.80
2022-10-11T03:35:59.834Z,17.67
2022-10-11T03:38:29.211Z,16.85
2022-10-11T03:40:58.001Z,17.12
2022-10-11T03:43:27.255Z,16.94
2022-10-11T03:45:55.907Z,17.05
2022-10-11T03:48:28.043Z,16.77
2022-10-11T03:50:56.686Z,16.97
2022-10-11T03:53:25.756Z,16.70
2022-10-11T03:55:56.222Z,16.07
2022-10-11T03:58:25.860Z,15.81
2022-10-11T04:00:54.936Z,16.19
2022-10-11T04:03:23.914Z,16.37
2022-10-11T04:05:55.294Z,16.25
2022-10-11T04:08:24.317Z,15.73
2022-10-11T04:10:53.101Z,15.14
2022-10-11T04:13:21.991Z,15.15
2022-10-11T04:15:50.948Z,15.28
2022-10-11T04:18:20.827Z,15.18
2022-10-11T04:20:50.044Z,15.11
2022-10-11T04:23:18.924Z,15.22
2022-10-11T04:25:49.116Z,15.30
2022-10-11T04:28:18.607Z,15.31
2022-10-11T04:30:47.869Z,15.12
2022-10-11T04:33:16.689Z,15.18
2022-10-11T04:35:45.500Z,15.19
2022-10-11T04:38:14.755Z,15.00
2022-10-11T04:40:43.508Z,15.08
2022-10-11T04:43:12.488Z,15.17
2022-10-11T04:45:41.110Z,15.69
2022-10-11T04:48:10.345Z,15.47
2022-10-11T04:50:39.137Z,15.61
2022-10-11T04:53:09.434Z,15.62
2022-10-11T04:55:38.276Z,15.11
2022-10-11T04:58:06.903Z,14.95
2022-10-11T05:00:35.958Z,14.80
2022-10-11T05:03:04.866Z,14.57
2022-10-11T05:05:33.691Z,14.47
2022-10-11T05:08:02.335Z,14.36
2022-10-11T05:10:31.401Z,14.35
2022-10-11T05:13:00.087Z,14.30
2022-10-11T05:15:28.942Z,14.13
2022-10-11T05:17:57.565Z,14.21
2022-10-11T05:20:26.778Z,14.32
2022-10-11T05:22:55.366Z,14.37
2022-10-11T05:25:24.206Z,14.50
2022-10-11T05:27:52.768Z,14.81
2022-10-11T05:30:22.169Z,15.06
2022-10-11T05:32:50.905Z,15.01
2022-10-11T05:35:20.005Z,14.92
2022-10-11T05:37:48.899Z,15.01
2022-10-11T05:40:17.832Z,14.82
2022-10-11T05:42:46.663Z,14.89
2022-10-11T05:45:15.525Z,14.89
2022-10-11T05:47:44.294Z,15.38
2022-10-11T05:50:13.264Z,15.51
2022-10-11T05:52:42.055Z,15.59
2022-10-11T05:55:11.519Z,17.02
2022-10-11T05:57:40.547Z,18.04
2022-10-11T06:00:10.133Z,18.96
2022-10-11T06:02:42.463Z,18.99
2022-10-11T06:05:11.867Z,19.13
2022-10-11T06:07:41.184Z,19.98
2022-10-11T06:10:10.964Z,20.01
2022-10-11T06:12:40.956Z,19.61
2022-10-11T06:15:11.775Z,19.62
2022-10-11T06:17:40.897Z,18.44
2022-10-11T06:20:10.444Z,19.51
2022-10-11T06:22:52.238Z,18.95
2022-10-11T06:25:21.727Z,19.12
2022-10-11T06:27:50.553Z,20.72
2022-10-11T06:30:19.590Z,21.46
2022-10-11T06:32:48.430Z,21.27
2022-10-11T06:35:17.406Z,20.37
2022-10-11T06:37:46.251Z,19.16
2022-10-11T06:40:15.243Z,18.24
2022-10-11T06:42:44.727Z,18.14
2022-10-11T06:45:13.943Z,17.87
2022-10-11T06:47:42.687Z,17.57
2022-10-11T06:50:11.626Z,17.43
2022-10-11T06:52:40.449Z,17.57
2022-10-11T06:55:09.854Z,18.28
2022-10-11T06:57:38.566Z,17.86
2022-10-11T07:00:12.509Z,17.12
2022-10-11T07:02:42.172Z,16.80
2022-10-11T07:05:11.620Z,16.68
2022-10-11T07:07:40.563Z,16.52
2022-10-11T07:10:09.678Z,16.50
2022-10-11T07:12:38.775Z,16.67
2022-10-11T07:15:08.008Z,16.64
2022-10-11T07:17:37.451Z,16.44
2022-10-11T07:20:08.100Z,16.28
2022-10-11T07:22:37.199Z,16.11
2022-10-11T07:25:06.225Z,15.96
2022-10-11T07:27:35.391Z,15.82
2022-10-11T07:30:04.562Z,15.94
2022-10-11T07:32:33.773Z,16.89
2022-10-11T07:35:02.551Z,18.97
2022-10-11T07:37:31.457Z,18.98
2022-10-11T07:40:00.048Z,17.90
2022-10-11T07:42:29.070Z,17.38
2022-10-11T07:44:58.006Z,17.09
2022-10-11T07:47:27.928Z,16.52
2022-10-11T07:49:56.958Z,16.06
2022-10-11T07:52:25.760Z,15.98
2022-10-11T07:54:54.370Z,15.93
2022-10-11T07:57:23.306Z,15.76
2022-10-11T07:59:51.994Z,15.95
2022-10-11T08:02:20.757Z,17.16
2022-10-11T08:04:49.787Z,16.88
2022-10-11T08:07:19.048Z,16.60
2022-10-11T08:09:47.641Z,16.21
2022-10-11T08:12:16.585Z,16.85
2022-10-11T08:14:45.318Z,16.76
2022-10-11T08:17:15.121Z,16.78
2022-10-11T08:19:43.887Z,16.44
2022-10-11T08:22:12.683Z,16.43
2022-10-11T08:24:41.299Z,17.15
2022-10-11T08:27:10.250Z,16.71
2022-10-11T08:29:39.451Z,16.82
2022-10-11T08:32:12.787Z,17.45
2022-10-11T08:34:41.612Z,17.01
2022-10-11T08:37:10.969Z,18.78
2022-10-11T08:39:40.327Z,18.40
2022-10-11T08:42:15.160Z,17.64
2022-10-11T08:45:10.512Z,17.48
2022-10-11T08:47:46.027Z,17.60
2022-10-11T08:50:25.527Z,16.99
2022-10-11T08:53:07.818Z,17.30
2022-10-11T08:55:52.563Z,19.33
2022-10-11T08:58:26.592Z,19.87
2022-10-11T09:00:57.937Z,20.81
2022-10-11T09:03:47.107Z,19.54
2022-10-11T09:06:25.360Z,18.65
2022-10-11T09:09:28.538Z,18.73
2022-10-11T09:12:16.353Z,18.35
2022-10-11T09:15:10.290Z,17.99
2022-10-11T09:18:06.246Z,17.53
2022-10-11T09:20:50.022Z,17.24
2022-10-11T09:23:39.979Z,16.96
2022-10-11T09:26:11.483Z,17.22
2022-10-11T09:28:51.586Z,18.20
2022-10-11T09:31:21.047Z,18.77
2022-10-11T09:33:52.903Z,18.47
2022-10-11T09:36:32.204Z,18.04
2022-10-11T09:39:15.937Z,17.43
2022-10-11T09:41:58.266Z,17.26
2022-10-11T09:44:33.894Z,16.53
2022-10-11T09:47:02.868Z,16.50
2022-10-11T09:49:46.492Z,16.24
2022-10-11T09:52:21.281Z,16.32
2022-10-11T09:54:58.884Z,15.97
2022-10-11T09:57:31.192Z,15.93
2022-10-11T10:00:36.024Z,15.53
2022-10-11T10:03:05.975Z,15.26
2022-10-11T10:05:40.729Z,15.24
2022-10-11T10:08:12.814Z,15.09
2022-10-11T10:11:11.779Z,14.95
2022-10-11T10:13:43.344Z,15.02
2022-10-11T10:16:28.872Z,14.93
2022-10-11T10:19:01.268Z,14.68
2022-10-11T10:21:36.989Z,14.71
2022-10-11T10:24:46.115Z,14.68
2022-10-11T10:27:24.900Z,14.56
2022-10-11T10:30:17.769Z,14.55
2022-10-11T10:32:58.621Z,14.56
2022-10-11T10:35:54.880Z,14.42
2022-10-11T10:38:41.887Z,14.57
2022-10-11T10:41:14.121Z,14.62
2022-10-11T10:43:46.812Z,14.64
2022-10-11T10:46:24.498Z,14.59
2022-10-11T10:49:51.947Z,14.81
2022-10-11T10:52:22.521Z,14.80
2022-10-11T10:55:15.615Z,14.99
2022-10-11T10:58:02.424Z,15.03
2022-10-11T11:00:40.647Z,15.08
2022-10-11T11:03:28.357Z,14.94
2022-10-11T11:06:19.097Z,14.94
2022-10-11T11:09:31.171Z,15.02
2022-10-11T11:12:30.482Z,14.89
2022-10-11T11:15:40.152Z,14.77
2022-10-11T11:18:29.439Z,14.65
2022-10-11T11:21:55.771Z,14.45
2022-10-11T11:24:51.942Z,14.26
2022-10-11T11:27:32.841Z,14.09
2022-10-11T11:30:08.014Z,13.96
2022-10-11T11:32:44.785Z,13.78
2022-10-11T11:35:35.195Z,13.64
2022-10-11T11:38:31.897Z,13.53
2022-10-11T11:41:06.374Z,13.48
2022-10-11T11:43:41.611Z,13.39
2022-10-11T11:46:16.724Z,13.38
2022-10-11T11:48:46.173Z,13.27
2022-10-11T11:51:30.583Z,13.18
2022-10-11T11:54:16.724Z,12.75
2022-10-11T11:57:07.155Z,13.13
2022-10-11T11:59:53.041Z,12.94
2022-10-11T12:02:43.477Z,13.04
2022-10-11T12:05:17.107Z,12.77
2022-10-11T12:07:55.132Z,12.81
2022-10-11T12:10:35.970Z,12.73
2022-10-11T12:13:09.523Z,12.70
2022-10-11T12:15:38.980Z,12.52
2022-10-11T12:18:16.921Z,12.42
2022-10-11T12:20:46.129Z,12.39
2022-10-11T12:23:30.021Z,12.36
2022-10-11T12:26:20.092Z,12.31
2022-10-11T12:29:29.053Z,12.12
2022-10-11T12:32:01.690Z,12.27
2022-10-11T12:34:37.540Z,12.19
2022-10-11T12:37:21.709Z,12.22
2022-10-11T12:39:54.887Z,12.16
2022-10-11T12:42:36.166Z,12.03
2022-10-11T12:45:14.605Z,11.97
2022-10-11T12:48:01.827Z,11.85
2022-10-11T12:50:58.530Z,11.78
2022-10-11T12:53:42.252Z,11.74
2022-10-11T12:56:15.562Z,11.59
2022-10-11T12:58:51.316Z,11.13
2022-10-11T13:01:24.010Z,11.37
2022-10-11T13:04:12.636Z,11.32
2022-10-11T13:06:57.688Z,11.27
2022-10-11T13:09:32.623Z,11.21
2022-10-11T13:12:07.731Z,11.11
2022-10-11T13:14:40.034Z,11.00
2022-10-11T13:17:18.324Z,11.01
2022-10-11T13:19:47.494Z,10.91
2022-10-11T13:22:22.891Z,10.91
2022-10-11T13:24:51.694Z,10.74
2022-10-11T13:27:27.334Z,10.67
2022-10-11T13:30:01.599Z,10.56
2022-10-11T13:32:33.453Z,10.61
2022-10-11T13:35:05.947Z,10.62
2022-10-11T13:37:45.622Z,10.55
2022-10-11T13:40:16.903Z,10.60
2022-10-11T13:42:49.309Z,10.47
2022-10-11T13:45:27.200Z,10.54
2022-10-11T13:47:56.705Z,10.48
2022-10-11T13:50:33.129Z,10.46
2022-10-11T13:53:26.607Z,10.40
2022-10-11T13:56:01.953Z,10.43
2022-10-11T13:58:41.775Z,10.37
2022-10-11T14:01:28.781Z,10.56
2022-10-11T14:04:03.279Z,10.63
2022-10-11T14:06:46.587Z,10.71
2022-10-11T14:09:40.666Z,10.68
2022-10-11T14:12:30.104Z,10.62
2022-10-11T14:15:00.555Z,10.43
2022-10-11T14:17:46.844Z,10.52
2022-10-11T14:20:26.419Z,10.52
2022-10-11T14:22:59.350Z,10.44
2022-10-11T14:25:28.269Z,10.31
2022-10-11T14:27:57.791Z,10.32
2022-10-11T14:30:28.582Z,10.45
2022-10-11T14:33:00.765Z,10.35
2022-10-11T14:35:33.098Z,10.48
2022-10-11T14:38:02.244Z,10.23
2022-10-11T14:40:33.207Z,10.43
2022-10-11T14:43:02.215Z,10.37
2022-10-11T14:45:31.449Z,10.29
2022-10-11T14:48:00.523Z,10.44
2022-10-11T14:50:34.886Z,10.43
2022-10-11T14:53:05.537Z,10.41
2022-10-11T14:55:35.934Z,10.33
2022-10-11T14:58:08.926Z,10.18
2022-10-11T15:00:38.550Z,10.30
2022-10-11T15:03:10.433Z,10.25
2022-10-11T15:05:40.087Z,10.26
2022-10-11T15:08:09.304Z,10.33
2022-10-11T15:10:42.369Z,10.36
2022-10-11T15:13:11.919Z,10.20
2022-10-11T15:15:43.119Z,10.19
2022-10-11T15:18:18.606Z,10.31
2022-10-11T15:20:48.622Z,10.28
2022-10-11T15:23:17.512Z,10.23
2022-10-11T15:25:46.629Z,10.20
2022-10-11T15:28:29.440Z,10.30
2022-10-11T15:30:59.568Z,10.36
2022-10-11T15:33:28.298Z,10.35
2022-10-11T15:35:57.019Z,10.19
2022-10-11T15:38:27.327Z,10.36
2022-10-11T15:40:57.127Z,10.23
2022-10-11T15:43:25.942Z,10.22
2022-10-11T15:45:57.371Z,10.40
2022-10-11T15:48:27.711Z,10.44
2022-10-11T15:50:57.022Z,10.54
2022-10-11T15:53:32.213Z,10.57
2022-10-11T15:56:10.111Z,10.57
2022-10-11T15:58:42.460Z,10.55
2022-10-11T16:01:21.434Z,10.58
2022-10-11T16:03:51.896Z,10.45
2022-10-11T16:06:22.087Z,10.49
2022-10-11T16:08:51.368Z,10.43
2022-10-11T16:11:20.261Z,10.40
2022-10-11T16:13:50.098Z,10.62
2022-10-11T16:16:19.190Z,10.55
2022-10-11T16:18:47.821Z,10.59
2022-10-11T16:21:16.706Z,10.57
2022-10-11T16:23:45.848Z,10.55
2022-10-11T16:26:17.342Z,10.43
2022-10-11T16:28:48.619Z,10.56
2022-10-11T16:31:22.169Z,10.70
2022-10-11T16:33:53.818Z,10.53
2022-10-11T16:36:36.966Z,10.74
2022-10-11T16:39:13.467Z,10.67
2022-10-11T16:41:43.750Z,10.83
2022-10-11T16:44:21.622Z,10.70
2022-10-11T16:46:51.279Z,10.66
2022-10-11T16:49:25.878Z,10.70
2022-10-11T16:51:57.651Z,10.77
2022-10-11T16:54:34.170Z,10.69
2022-10-11T16:57:04.094Z,10.70
2022-10-11T16:59:32.929Z,10.62
2022-10-11T17:02:02.188Z,10.77
2022-10-11T17:04:31.112Z,10.88
2022-10-11T17:07:00.685Z,10.83
2022-10-11T17:09:29.666Z,10.98
2022-10-11T17:11:58.712Z,10.95
2022-10-11T17:14:27.767Z,11.00
2022-10-11T17:16:56.878Z,10.92
2022-10-11T17:19:26.090Z,10.88
2022-10-11T17:21:55.570Z,10.87
2022-10-11T17:24:24.786Z,10.87
2022-10-11T17:26:55.278Z,10.89
2022-10-11T17:29:25.367Z,10.95
2022-10-11T17:31:55.066Z,10.99
2022-10-11T17:34:24.093Z,10.83
2022-10-11T17:36:53.393Z,10.89
2022-10-11T17:39:24.523Z,11.02
2022-10-11T17:41:54.101Z,10.90
2022-10-11T17:44:23.378Z,11.02
2022-10-11T17:46:52.294Z,10.98
2022-10-11T17:49:21.216Z,10.85
2022-10-11T17:51:50.134Z,11.01
2022-10-11T17:54:19.327Z,10.93
2022-10-11T17:56:48.162Z,10.89
2022-10-11T17:59:19.405Z,10.97
2022-10-11T18:01:48.990Z,10.96
2022-10-11T18:04:18.657Z,11.00
2022-10-11T18:06:49.491Z,10.87
2022-10-11T18:09:20.035Z,10.81
2022-10-11T18:11:50.192Z,10.73
2022-10-11T18:14:19.780Z,10.86
2022-10-11T18:16:48.735Z,10.84
2022-10-11T18:19:20.790Z,10.70
2022-10-11T18:21:50.006Z,10.30
2022-10-11T18:24:18.957Z,9.16
2022-10-11T18:26:48.337Z,8.90
2022-10-11T18:29:17.393Z,8.61
2022-10-11T18:31:47.002Z,8.51
2022-10-11T18:34:16.856Z,8.63
2022-10-11T18:36:46.129Z,8.53
2022-10-11T18:39:16.445Z,8.68
2022-10-11T18:41:45.753Z,8.70
2022-10-11T18:44:16.607Z,8.52
2022-10-11T18:46:47.367Z,8.54
2022-10-11T18:49:16.729Z,8.53
2022-10-11T18:51:47.015Z,8.64
2022-10-11T18:54:20.250Z,8.70
2022-10-11T18:56:50.804Z,8.55
2022-10-11T18:59:20.946Z,8.65
2022-10-11T19:01:53.417Z,8.70
2022-10-11T19:04:22.832Z,8.61
2022-10-11T19:06:54.279Z,8.59
2022-10-11T19:09:26.880Z,8.37
2022-10-11T19:11:58.238Z,8.61
2022-10-11T19:14:29.993Z,8.55
2022-10-11T19:16:59.656Z,8.43
2022-10-11T19:19:31.871Z,8.72
2022-10-11T19:22:01.940Z,8.70
2022-10-11T19:24:32.669Z,8.58
2022-10-11T19:27:03.326Z,8.61
2022-10-11T19:29:33.411Z,8.34
2022-10-11T19:32:05.244Z,8.32
2022-10-11T19:34:34.137Z,8.17
2022-10-11T19:37:04.302Z,8.33
2022-10-11T19:39:33.994Z,8.20
2022-10-11T19:42:02.822Z,8.10
2022-10-11T19:44:35.712Z,8.20
2022-10-11T19:47:07.929Z,8.02
2022-10-11T19:49:36.756Z,7.96
2022-10-11T19:52:06.338Z,8.08
2022-10-11T19:54:35.239Z,7.98
2022-10-11T19:57:04.238Z,8.17
2022-10-11T19:59:33.053Z,8.14
2022-10-11T20:02:02.388Z,7.99
2022-10-11T20:04:51.620Z,7.79
2022-10-11T20:07:21.362Z,7.84
2022-10-11T20:09:50.192Z,7.96
2022-10-11T20:12:19.430Z,8.55
2022-10-11T20:14:48.416Z,8.84
2022-10-11T20:17:17.505Z,9.08
2022-10-11T20:19:46.384Z,8.83
2022-10-11T20:22:15.473Z,8.56
2022-10-11T20:24:44.396Z,8.46
2022-10-11T20:27:13.619Z,8.27
2022-10-11T20:29:42.964Z,8.25
2022-10-11T20:32:12.205Z,8.26
2022-10-11T20:34:41.115Z,8.70
2022-10-11T20:37:10.286Z,8.90
2022-10-11T20:39:39.505Z,8.71
2022-10-11T20:42:09.320Z,8.60
2022-10-11T20:44:38.223Z,8.47
2022-10-11T20:47:07.682Z,8.61
2022-10-11T20:49:36.566Z,8.30
2022-10-11T20:52:05.753Z,8.30
2022-10-11T20:54:36.327Z,8.17
2022-10-11T20:57:06.286Z,8.30
2022-10-11T20:59:35.019Z,8.38
2022-10-11T21:02:04.072Z,8.26
2022-10-11T21:04:32.993Z,7.96
2022-10-11T21:07:01.999Z,7.74
2022-10-11T21:09:30.853Z,8.31
2022-10-11T21:12:01.562Z,8.42
2022-10-11T21:14:30.820Z,8.35
2022-10-11T21:16:59.754Z,8.27
2022-10-11T21:19:29.103Z,8.31
2022-10-11T21:21:57.872Z,8.21
2022-10-11T21:24:26.803Z,8.24
2022-10-11T21:27:00.269Z,7.90
2022-10-11T21:29:29.816Z,8.09
2022-10-11T21:31:58.778Z,7.87
2022-10-11T21:34:27.871Z,7.66
2022-10-11T21:36:56.672Z,7.52
2022-10-11T21:39:26.193Z,7.43
2022-10-11T21:41:55.074Z,7.46
2022-10-11T21:44:24.309Z,7.14
2022-10-11T21:47:06.939Z,7.06
2022-10-11T21:49:37.397Z,6.96
2022-10-11T21:52:14.769Z,7.16
2022-10-11T21:54:44.252Z,7.13
2022-10-11T21:57:13.183Z,7.06
2022-10-11T21:59:42.096Z,6.94
2022-10-11T22:02:11.331Z,6.96
2022-10-11T22:04:40.693Z,7.17
2022-10-11T22:07:09.492Z,6.87
2022-10-11T22:09:38.629Z,6.95
2022-10-11T22:12:08.191Z,6.96
2022-10-11T22:14:37.414Z,7.31
2022-10-11T22:17:06.419Z,7.44
2022-10-11T22:19:35.566Z,7.40
2022-10-11T22:22:04.405Z,7.42
2022-10-11T22:24:33.531Z,7.10
2022-10-11T22:27:02.410Z,7.09
2022-10-11T22:29:34.210Z,6.98
2022-10-11T22:32:03.693Z,7.11
2022-10-11T22:34:33.897Z,7.46
2022-10-11T22:37:02.889Z,7.39
2022-10-11T22:39:32.036Z,7.39
2022-10-11T22:42:01.104Z,7.45
2022-10-11T22:44:29.799Z,7.64
2022-10-11T22:46:59.298Z,7.43
2022-10-11T22:49:28.195Z,7.51
2022-10-11T22:51:57.077Z,7.79
2022-10-11T22:54:25.864Z,7.82
2022-10-11T22:56:54.836Z,7.74
2022-10-11T22:59:23.730Z,8.12
2022-10-11T23:01:52.980Z,7.94
2022-10-11T23:04:22.043Z,8.21
2022-10-11T23:06:51.063Z,8.14
2022-10-11T23:09:20.075Z,8.32
2022-10-11T23:11:49.086Z,8.37
2022-10-11T23:14:17.823Z,8.41
2022-10-11T23:16:47.506Z,8.31
2022-10-11T23:19:16.451Z,8.07
2022-10-11T23:21:45.492Z,7.82
2022-10-11T23:24:14.761Z,7.49
2022-10-11T23:26:43.708Z,7.70
2022-10-11T23:29:12.493Z,7.45
2022-10-11T23:31:41.732Z,7.43
2022-10-11T23:34:10.508Z,7.48
2022-10-11T23:36:39.411Z,7.60
2022-10-11T23:39:09.278Z,7.36
2022-10-11T23:41:39.269Z,7.32
2022-10-11T23:44:08.179Z,7.48
2022-10-11T23:46:37.361Z,7.38
2022-10-11T23:49:06.332Z,7.40
2022-10-11T23:51:35.492Z,7.16
2022-10-11T23:54:04.359Z,7.35
2022-10-11T23:56:33.501Z,7.25
2022-10-11T23:59:02.226Z,7.28
